Time;durP1;ratioP1;P1;durP2;ratioP2;P2;SDS_P1;SDS_P2;PMS_P1;PMS_P2;Temp;Humidity;BMP_temperature;BMP_pressure;BME280_temperature;BME280_humidity;BME280_pressure;Samples;Min_cycle;Max_cycle;Signal;HPM_P1;HPM_P2
2024/04/19 00:00:15;;;;;;;13.27;5.57;;;;;;;7.44;72.15;101039.91;6689810;21;19995;-82
2024/04/19 00:02:44;;;;;;;11.75;5.20;;;;;;;7.47;72.62;101041.50;6689983;21;20374;-81
2024/04/19 00:05:15;;;;;;;8.95;4.72;;;;;;;7.52;71.89;101036.75;6690063;21;20072;-83
2024/04/19 00:07:40;;;;;;;7.53;4.90;;;;;;;7.50;72.18;101026.34;6688076;21;20019;-81
2024/04/19 00:10:10;;;;;;;10.15;5.35;;;;;;;7.50;72.77;101021.09;6689652;21;20045;-82
2024/04/19 00:12:35;;;;;;;9.30;5.25;;;;;;;7.53;72.50;101006.84;6692800;21;20003;-80
2024/04/19 00:15:04;;;;;;;8.73;5.25;;;;;;;7.57;71.58;101017.06;6690968;21;19991;-82
2024/04/19 00:17:29;;;;;;;9.35;5.18;;;;;;;7.61;71.88;100991.34;6690921;21;20432;-81
2024/04/19 00:19:58;;;;;;;9.93;5.22;;;;;;;7.59;71.86;100986.22;6687340;21;20003;-81
2024/04/19 00:22:26;;;;;;;9.55;6.30;;;;;;;7.62;71.79;100982.50;6691704;21;20010;-82
2024/04/19 00:24:54;;;;;;;8.98;5.38;;;;;;;7.56;72.65;100975.03;6691841;21;19991;-81
2024/04/19 00:27:22;;;;;;;7.95;5.72;;;;;;;7.62;72.71;100976.41;6689273;21;20109;-81
2024/04/19 00:29:48;;;;;;;9.45;5.93;;;;;;;7.58;72.49;100967.84;6689714;21;20009;-82
2024/04/19 00:32:16;;;;;;;12.90;6.50;;;;;;;7.58;72.59;100975.75;6690293;21;19998;-81
2024/04/19 00:34:42;;;;;;;8.88;5.88;;;;;;;7.56;73.25;100967.13;6689569;21;20486;-82
2024/04/19 00:37:11;;;;;;;9.95;6.07;;;;;;;7.55;73.45;100963.66;6689243;21;19995;-82
2024/04/19 00:39:39;;;;;;;12.73;6.10;;;;;;;7.56;74.11;100962.72;6690572;21;19999;-81
2024/04/19 00:42:08;;;;;;;9.98;6.68;;;;;;;7.58;74.63;100962.59;6691417;21;19995;-82
2024/04/19 00:44:33;;;;;;;10.77;6.13;;;;;;;7.59;75.38;100967.78;6689969;21;20344;-82
2024/04/19 00:47:01;;;;;;;11.15;7.20;;;;;;;7.48;75.34;100970.28;6692451;21;20006;-80
2024/04/19 00:49:28;;;;;;;11.48;7.05;;;;;;;7.42;75.63;100960.19;6689213;21;19995;-82
2024/04/19 00:51:57;;;;;;;11.13;7.15;;;;;;;7.45;76.98;100961.75;6690449;21;20083;-79
2024/04/19 00:54:25;;;;;;;12.00;6.68;;;;;;;7.42;77.53;100978.63;6689132;21;20306;-81
2024/04/19 00:56:57;;;;;;;12.23;6.95;;;;;;;7.51;75.57;100962.19;6690030;21;19991;-80
2024/04/19 00:59:23;;;;;;;11.95;7.05;;;;;;;7.50;78.21;100954.38;6693065;21;20390;-82
2024/04/19 01:01:51;;;;;;;10.48;7.43;;;;;;;7.31;79.25;100960.91;6695337;21;20040;-81
2024/04/19 01:04:17;;;;;;;12.73;8.50;;;;;;;7.34;78.79;100963.34;6693440;21;20010;-80
2024/04/19 01:06:46;;;;;;;12.55;8.43;;;;;;;7.30;79.50;100956.59;6693099;21;19999;-80
2024/04/19 01:09:13;;;;;;;16.90;8.27;;;;;;;7.22;81.06;100940.47;6693994;21;19998;-82
2024/04/19 01:11:44;;;;;;;13.95;9.25;;;;;;;7.20;81.20;100933.66;6693857;21;20003;-82
2024/04/19 01:14:15;;;;;;;15.35;9.02;;;;;;;7.18;82.08;100936.38;6693059;21;20003;-82
2024/04/19 01:16:41;;;;;;;17.42;9.63;;;;;;;7.15;81.47;100941.03;6692001;21;20441;-83
2024/04/19 01:19:10;;;;;;;14.77;9.00;;;;;;;7.11;83.00;100940.38;6691760;21;19995;-82
2024/04/19 01:21:38;;;;;;;13.93;9.40;;;;;;;7.05;83.24;100928.50;6690858;21;20110;-83
2024/04/19 01:24:14;;;;;;;13.23;9.90;;;;;;;6.99;81.68;100918.38;6691860;21;19995;-80
2024/04/19 01:26:44;;;;;;;14.27;10.35;;;;;;;7.00;81.95;100913.94;6691470;21;19995;-82
2024/04/19 01:29:10;;;;;;;16.83;9.77;;;;;;;7.04;80.80;100907.53;6689042;21;20002;-80
2024/04/19 01:31:39;;;;;;;12.88;9.05;;;;;;;7.04;81.42;100897.84;6688214;21;20018;-80
2024/04/19 01:34:07;;;;;;;14.43;9.25;;;;;;;7.01;82.16;100892.81;6689671;21;20009;-79
2024/04/19 01:36:32;;;;;;;10.73;9.27;;;;;;;7.03;81.31;100890.91;6691797;21;20110;-80
2024/04/19 01:39:01;;;;;;;10.98;9.05;;;;;;;7.02;81.90;100888.38;6690257;21;19995;-81
2024/04/19 01:41:27;;;;;;;11.68;9.18;;;;;;;7.02;81.40;100894.50;6691040;21;20009;-81
2024/04/19 01:43:58;;;;;;;13.07;8.98;;;;;;;7.05;81.13;100901.31;6691052;21;20418;-82
2024/04/19 01:46:24;;;;;;;12.68;9.05;;;;;;;6.99;81.84;100899.94;6690440;21;20007;-81
2024/04/19 01:48:52;;;;;;;15.27;10.10;;;;;;;7.01;82.51;100887.56;6690922;21;20010;-81
2024/04/19 01:51:17;;;;;;;14.30;10.05;;;;;;;7.04;83.21;100889.94;6690872;21;20452;-81
2024/04/19 01:53:46;;;;;;;13.98;10.93;;;;;;;7.00;81.63;100885.84;6694326;21;19995;-82
2024/04/19 01:56:11;;;;;;;15.13;11.82;;;;;;;6.98;81.99;100886.91;6695530;21;20063;-81
2024/04/19 01:58:40;;;;;;;11.85;10.10;;;;;;;7.01;79.80;100884.91;6689642;21;19998;-81
2024/04/19 02:01:08;;;;;;;14.50;10.63;;;;;;;6.99;79.30;100878.91;6689590;21;19995;-80
2024/04/19 02:03:36;;;;;;;15.60;11.07;;;;;;;6.92;80.73;100871.53;6689918;21;20049;-82
2024/04/19 02:06:07;;;;;;;15.27;11.55;;;;;;;6.83;82.00;100868.59;6688682;21;19991;-82
2024/04/19 02:08:35;;;;;;;13.88;11.10;;;;;;;6.77;82.85;100870.78;6689579;21;20010;-80
2024/04/19 02:11:02;;;;;;;17.00;12.00;;;;;;;6.69;83.10;100847.63;6690355;21;20010;-80
2024/04/19 02:13:30;;;;;;;16.80;12.07;;;;;;;6.66;85.00;100857.53;6688253;21;20013;-79
2024/04/19 02:15:59;;;;;;;14.13;12.68;;;;;;;6.61;84.43;100847.31;6689309;21;19991;-80
2024/04/19 02:18:30;;;;;;;15.35;11.48;;;;;;;6.58;84.32;100848.38;6688423;21;20011;-79
2024/04/19 02:20:55;;;;;;;16.25;11.50;;;;;;;6.44;84.70;100839.72;6689566;21;19991;-78
2024/04/19 02:23:41;;;;;;;15.68;11.90;;;;;;;6.46;84.41;100822.88;6692405;21;19995;-83
2024/04/19 02:26:08;;;;;;;11.98;10.55;;;;;;;6.43;85.37;100817.00;6693053;21;20009;-84
2024/04/19 02:31:21;;;;;;;15.73;11.75;;;;;;;6.42;85.71;100804.78;6695579;21;20045;-83
2024/04/19 02:33:52;;;;;;;15.00;10.68;;;;;;;6.42;86.63;100797.75;6693641;21;20023;-81
2024/04/19 02:36:21;;;;;;;13.55;10.32;;;;;;;6.43;85.79;100788.94;6692649;21;20284;-79
2024/04/19 02:38:49;;;;;;;12.95;10.15;;;;;;;6.39;86.46;100791.88;6689550;21;20419;-82
2024/04/19 02:41:17;;;;;;;14.15;10.70;;;;;;;6.36;86.03;100779.78;6691990;21;20006;-81
2024/04/19 02:43:47;;;;;;;14.98;10.50;;;;;;;6.38;87.39;100774.41;6691070;21;19991;-82
2024/04/19 02:46:16;;;;;;;16.42;10.85;;;;;;;6.40;87.91;100775.16;6691538;21;20326;-80
2024/04/19 02:48:45;;;;;;;14.73;10.65;;;;;;;6.44;87.16;100761.69;6690126;21;20087;-78
2024/04/19 02:51:16;;;;;;;12.77;10.15;;;;;;;6.43;86.50;100765.28;6691764;21;20017;-80
2024/04/19 02:53:46;;;;;;;14.20;10.48;;;;;;;6.44;86.52;100748.56;6691794;21;19995;-80
2024/04/19 02:56:15;;;;;;;13.85;10.05;;;;;;;6.38;86.79;100762.09;6692038;21;20023;-81
2024/04/19 02:58:41;;;;;;;15.10;9.80;;;;;;;6.40;87.25;100741.81;6690376;21;19995;-81
2024/04/19 03:01:09;;;;;;;14.27;9.13;;;;;;;6.39;87.49;100729.63;6691390;21;20009;-79
2024/04/19 03:03:38;;;;;;;15.10;10.10;;;;;;;6.38;87.09;100727.09;6693578;21;19991;-78
2024/04/19 03:06:06;;;;;;;11.57;8.13;;;;;;;6.36;87.06;100726.38;6692665;21;19995;-81
2024/04/19 03:08:37;;;;;;;12.77;7.93;;;;;;;6.38;86.97;100721.84;6689767;21;19991;-81
2024/04/19 03:11:06;;;;;;;12.02;7.90;;;;;;;6.36;86.80;100719.31;6693090;21;19999;-80
2024/04/19 03:13:34;;;;;;;11.02;7.55;;;;;;;6.35;87.34;100715.00;6696036;21;19995;-79
2024/04/19 03:16:07;;;;;;;12.18;7.28;;;;;;;6.34;87.57;100718.59;6695697;21;20005;-82
2024/04/19 03:18:35;;;;;;;;;;;;;;;6.35;86.43;100714.19;6693552;21;19999;-81
2024/04/19 03:21:04;;;;;;;11.35;7.82;;;;;;;6.34;87.27;100708.09;6689332;21;19950;-79
2024/04/19 03:23:33;;;;;;;11.93;7.45;;;;;;;6.37;86.97;100702.59;6690403;21;20027;-81
2024/04/19 03:26:05;;;;;;;17.65;8.13;;;;;;;6.31;87.88;100698.59;6691733;21;19998;-79
2024/04/19 03:28:33;;;;;;;11.30;7.60;;;;;;;6.27;87.79;100691.03;6691115;21;19991;-79
2024/04/19 03:31:01;;;;;;;12.55;8.15;;;;;;;6.22;87.76;100687.88;6691510;21;20498;-80
2024/04/19 03:33:30;;;;;;;13.10;7.38;;;;;;;6.27;86.29;100678.75;6690978;21;19995;-80
2024/04/19 03:35:58;;;;;;;12.00;7.80;;;;;;;6.27;87.79;100676.09;6690781;21;19995;-80
2024/04/19 03:38:28;;;;;;;10.48;6.72;;;;;;;6.24;86.12;100670.22;6689815;21;20002;-79
2024/04/19 03:40:56;;;;;;;12.98;6.85;;;;;;;6.21;87.41;100665.19;6688792;21;20080;-78
2024/04/19 03:43:32;;;;;;;10.70;7.35;;;;;;;6.18;86.72;100665.41;6687404;21;20076;-78
2024/04/19 03:45:59;;;;;;;11.45;7.10;;;;;;;6.15;86.61;100649.81;6688400;21;20298;-79
2024/04/19 03:48:27;;;;;;;8.60;6.00;;;;;;;6.12;86.72;100645.66;6686329;21;20014;-80
2024/04/19 03:50:56;;;;;;;8.73;6.20;;;;;;;6.12;87.02;100648.28;6686923;21;19995;-78
2024/04/19 03:53:24;;;;;;;8.45;5.72;;;;;;;6.10;86.53;100651.94;6687697;21;19995;-79
2024/04/19 03:55:52;;;;;;;9.93;5.53;;;;;;;6.02;86.21;100645.41;6690980;21;20010;-79
2024/04/19 03:58:21;;;;;;;8.25;5.28;;;;;;;6.00;85.82;100642.06;6690929;21;19992;-79
2024/04/19 04:00:52;;;;;;;8.98;6.82;;;;;;;5.95;87.81;100643.31;6692806;21;20002;-79
2024/04/19 04:03:20;;;;;;;10.15;5.72;;;;;;;5.93;87.48;100635.53;6691688;21;19991;-80
2024/04/19 04:05:53;;;;;;;9.27;5.32;;;;;;;5.89;87.30;100617.41;6689994;21;20010;-79
2024/04/19 04:08:23;;;;;;;7.53;4.93;;;;;;;5.84;86.29;100636.94;6685691;21;20064;-80
2024/04/19 04:10:52;;;;;;;7.00;4.75;;;;;;;5.83;86.80;100623.94;6687922;21;19995;-81
2024/04/19 04:13:20;;;;;;;7.32;4.63;;;;;;;5.78;88.17;100620.78;6688106;21;20354;-80
2024/04/19 04:15:48;;;;;;;6.80;4.72;;;;;;;5.71;88.05;100612.47;6691184;21;19991;-82
2024/04/19 04:18:19;;;;;;;12.23;5.00;;;;;;;5.75;87.67;100600.81;6690059;21;19999;-80
2024/04/19 04:20:47;;;;;;;7.95;4.75;;;;;;;5.72;88.73;100610.72;6690754;21;20014;-79
2024/04/19 04:23:17;;;;;;;9.50;5.72;;;;;;;5.72;87.58;100593.16;6691476;21;20345;-80
2024/04/19 04:25:45;;;;;;;8.00;5.05;;;;;;;5.72;88.43;100597.59;6691115;21;20010;-82
2024/04/19 04:28:13;;;;;;;12.20;6.03;;;;;;;5.68;88.10;100593.47;6692169;21;19991;-82
2024/04/19 04:30:41;;;;;;;7.30;4.85;;;;;;;5.66;88.21;100584.84;6693810;21;20074;-82
2024/04/19 04:33:13;;;;;;;8.20;4.75;;;;;;;5.68;87.16;100588.22;6693026;21;19995;-81
2024/04/19 04:35:44;;;;;;;7.38;4.80;;;;;;;5.64;89.00;100576.25;6692555;21;19991;-82
2024/04/19 04:38:12;;;;;;;8.73;4.80;;;;;;;5.57;90.00;100587.16;6688643;21;20014;-83
2024/04/19 04:40:41;;;;;;;8.63;4.10;;;;;;;5.55;88.33;100572.47;6688583;21;19999;-83
2024/04/19 04:43:09;;;;;;;8.95;4.15;;;;;;;5.50;89.81;100569.31;6689408;21;20014;-82
2024/04/19 04:45:37;;;;;;;7.15;4.63;;;;;;;5.47;90.07;100559.84;6689460;21;19991;-80
2024/04/19 04:48:06;;;;;;;8.30;5.00;;;;;;;5.49;89.80;100559.72;6688562;21;19991;-82
2024/04/19 04:50:35;;;;;;;5.85;4.28;;;;;;;5.46;90.84;100552.94;6690766;21;20010;-82
2024/04/19 04:53:06;;;;;;;8.18;4.60;;;;;;;5.42;90.37;100551.44;6690789;21;20014;-83
2024/04/19 04:55:34;;;;;;;6.05;4.43;;;;;;;5.43;91.10;100536.53;6691127;21;20298;-82
2024/04/19 04:58:04;;;;;;;5.68;3.92;;;;;;;5.39;89.63;100529.81;6687311;21;20006;-79
2024/04/19 05:00:32;;;;;;;5.82;3.92;;;;;;;5.36;90.83;100524.75;6691843;21;20005;-82
2024/04/19 05:03:04;;;;;;;4.97;4.10;;;;;;;5.37;90.58;100521.22;6691207;21;19999;-80
2024/04/19 05:05:32;;;;;;;7.55;3.80;;;;;;;5.32;90.49;100519.75;6688535;21;20027;-81
2024/04/19 05:08:00;;;;;;;6.53;4.10;;;;;;;5.28;90.64;100510.41;6687201;21;19999;-79
2024/04/19 05:10:31;;;;;;;6.50;3.90;;;;;;;5.28;90.22;100512.19;6693773;21;20014;-81
2024/04/19 05:13:00;;;;;;;5.28;3.85;;;;;;;5.31;90.50;100509.31;6691739;21;20050;-82
2024/04/19 05:15:28;;;;;;;6.75;3.95;;;;;;;5.27;90.80;100492.13;6696277;21;20098;-81
2024/04/19 05:17:56;;;;;;;4.63;3.42;;;;;;;5.29;89.71;100492.88;6693809;21;20074;-81
2024/04/19 05:20:25;;;;;;;4.88;3.58;;;;;;;5.28;90.96;100502.53;6690191;21;20006;-82
2024/04/19 05:22:53;;;;;;;4.65;3.35;;;;;;;5.36;91.04;100488.91;6688853;21;20010;-82
2024/04/19 05:25:21;;;;;;;8.93;5.32;;;;;;;5.33;91.07;100496.97;6688527;21;19995;-81
2024/04/19 05:27:52;;;;;;;6.75;3.80;;;;;;;5.31;91.82;100483.09;6688649;21;20003;-81
2024/04/19 05:30:27;;;;;;;6.25;4.85;;;;;;;5.36;91.22;100482.78;6689043;21;20006;-82
2024/04/19 05:32:55;;;;;;;6.53;3.95;;;;;;;5.39;91.42;100487.81;6689940;21;20296;-82
2024/04/19 05:35:24;;;;;;;5.68;4.10;;;;;;;5.37;91.53;100484.47;6688672;21;20015;-82
2024/04/19 05:37:57;;;;;;;7.93;3.97;;;;;;;5.38;91.64;100481.75;6687988;21;20332;-80
2024/04/19 05:40:26;;;;;;;4.38;3.33;;;;;;;5.41;91.90;100484.16;6690262;21;19991;-80
2024/04/19 05:42:57;;;;;;;5.22;3.80;;;;;;;5.42;92.15;100479.75;6689089;21;20299;-81
2024/04/19 05:45:25;;;;;;;4.95;3.83;;;;;;;5.40;92.42;100471.97;6690771;21;20009;-81
2024/04/19 05:47:53;;;;;;;4.90;3.60;;;;;;;5.37;92.31;100469.56;6690563;21;19995;-81
2024/04/19 05:50:22;;;;;;;5.45;3.53;;;;;;;5.40;92.33;100471.97;6691804;21;19991;-80
2024/04/19 05:52:51;;;;;;;6.88;4.10;;;;;;;5.44;92.62;100452.44;6688851;21;20009;-80
2024/04/19 05:55:19;;;;;;;5.18;3.95;;;;;;;5.49;92.88;100453.00;6690273;21;20010;-81
2024/04/19 05:57:47;;;;;;;6.10;3.55;;;;;;;5.52;92.99;100446.69;6690985;21;20444;-79
2024/04/19 06:00:19;;;;;;;6.35;3.80;;;;;;;5.58;93.32;100441.84;6693521;21;19995;-80
2024/04/19 06:02:47;;;;;;;6.45;3.90;;;;;;;5.61;93.11;100432.91;6696193;21;19999;-80
2024/04/19 06:05:15;;;;;;;5.05;3.47;;;;;;;5.70;92.76;100434.06;6693371;21;20401;-80
2024/04/19 06:07:43;;;;;;;6.90;3.95;;;;;;;5.71;92.83;100425.22;6687721;21;20452;-79
2024/04/19 06:10:12;;;;;;;5.72;3.92;;;;;;;5.72;93.32;100421.69;6686522;21;20030;-79
2024/04/19 06:12:40;;;;;;;6.25;3.72;;;;;;;5.79;93.56;100407.16;6688665;21;20010;-81
2024/04/19 06:15:09;;;;;;;5.70;4.00;;;;;;;5.86;93.28;100413.66;6690319;21;20007;-80
2024/04/19 06:17:40;;;;;;;5.18;4.03;;;;;;;5.87;93.21;100410.06;6689666;21;19991;-79
2024/04/19 06:20:09;;;;;;;6.03;3.67;;;;;;;5.84;93.61;100405.03;6694320;21;20006;-79
2024/04/19 06:22:37;;;;;;;8.05;4.57;;;;;;;5.85;94.05;100406.72;6697252;21;20023;-83
2024/04/19 06:25:06;;;;;;;6.70;4.40;;;;;;;5.94;94.14;100397.34;6700461;21;20010;-81
2024/04/19 06:27:34;;;;;;;6.82;4.20;;;;;;;5.91;94.70;100394.94;6692912;21;19999;-83
2024/04/19 06:30:02;;;;;;;6.00;4.57;;;;;;;5.88;94.74;100390.72;6685261;21;20006;-83
2024/04/19 06:32:30;;;;;;;7.32;4.55;;;;;;;5.97;95.15;100381.38;6690643;21;20014;-84
2024/04/19 06:35:02;;;;;;;6.50;4.40;;;;;;;5.98;95.43;100386.53;6691819;21;20003;-81
2024/04/19 06:37:30;;;;;;;6.85;4.68;;;;;;;6.02;95.09;100381.88;6690374;21;20023;-82
2024/04/19 06:40:02;;;;;;;7.03;4.75;;;;;;;6.01;95.42;100370.53;6690247;21;20072;-83
2024/04/19 06:42:30;;;;;;;7.40;4.53;;;;;;;6.05;95.46;100376.41;6692977;21;20007;-81
2024/04/19 06:44:58;;;;;;;6.53;4.65;;;;;;;6.07;95.84;100366.63;6690969;21;20085;-81
2024/04/19 06:47:27;;;;;;;5.75;4.50;;;;;;;6.11;96.49;100362.00;6692113;21;20013;-83
2024/04/19 06:49:55;;;;;;;6.53;5.03;;;;;;;6.19;96.26;100363.09;6689729;21;19995;-81
2024/04/19 06:52:26;;;;;;;9.25;4.85;;;;;;;6.24;95.86;100349.63;6691916;21;20430;-82
2024/04/19 06:54:55;;;;;;;7.95;4.57;;;;;;;6.31;96.13;100359.59;6692677;21;20002;-79
2024/04/19 06:57:24;;;;;;;5.70;4.38;;;;;;;6.33;95.84;100349.78;6688963;21;19995;-82
2024/04/19 06:59:52;;;;;;;5.80;4.10;;;;;;;6.39;96.30;100353.78;6687468;21;20282;-83
2024/04/19 07:02:20;;;;;;;5.20;4.03;;;;;;;6.35;95.72;100344.44;6691755;21;19995;-84
2024/04/19 07:04:51;;;;;;;4.32;3.90;;;;;;;6.36;96.19;100335.59;6692072;21;20342;-81
2024/04/19 07:07:19;;;;;;;4.97;3.63;;;;;;;6.39;96.20;100337.16;6691863;21;20031;-82
2024/04/19 07:09:50;;;;;;;6.90;4.40;;;;;;;6.42;96.50;100329.88;6690284;21;20430;-80
2024/04/19 07:12:18;;;;;;;5.03;4.05;;;;;;;6.46;96.22;100328.69;6690333;21;19999;-82
2024/04/19 07:14:46;;;;;;;4.88;3.95;;;;;;;6.52;96.61;100330.88;6688119;21;20098;-80
2024/04/19 07:17:15;;;;;;;5.50;4.35;;;;;;;6.57;96.91;100320.84;6684638;21;20002;-79
2024/04/19 07:19:43;;;;;;;5.22;4.32;;;;;;;6.66;96.61;100319.31;6684463;21;20005;-80
2024/04/19 07:22:11;;;;;;;6.07;4.40;;;;;;;6.68;96.21;100320.00;6685310;21;20005;-79
2024/04/19 07:24:39;;;;;;;5.10;4.40;;;;;;;6.77;96.26;100307.94;6689478;21;19991;-78
2024/04/19 07:27:10;;;;;;;6.50;4.72;;;;;;;6.67;96.11;100315.72;6689693;21;19995;-80
2024/04/19 07:29:39;;;;;;;5.53;4.50;;;;;;;6.71;96.80;100316.31;6690463;21;20082;-79
2024/04/19 07:32:08;;;;;;;5.85;4.47;;;;;;;6.80;96.64;100305.09;6693182;21;20006;-81
2024/04/19 07:34:36;;;;;;;5.55;4.72;;;;;;;6.84;97.03;100302.13;6689634;21;20000;-80
2024/04/19 07:37:07;;;;;;;6.25;4.78;;;;;;;6.90;96.85;100305.22;6689909;21;20006;-80
2024/04/19 07:39:36;;;;;;;6.03;5.03;;;;;;;6.93;97.04;100305.81;6691122;21;19999;-79
2024/04/19 07:42:04;;;;;;;6.00;5.15;;;;;;;7.00;96.75;100307.00;6689872;21;20003;-81
2024/04/19 07:44:35;;;;;;;6.38;4.95;;;;;;;7.02;97.21;100294.59;6692304;21;19999;-80
2024/04/19 07:47:03;;;;;;;8.02;5.63;;;;;;;7.03;96.30;100288.38;6692263;21;19991;-81
2024/04/19 07:49:32;;;;;;;7.45;5.15;;;;;;;7.12;96.73;100285.97;6692401;21;19999;-81
2024/04/19 07:52:00;;;;;;;5.82;4.90;;;;;;;7.22;96.32;100276.38;6692808;21;20081;-82
2024/04/19 07:54:28;;;;;;;6.63;5.10;;;;;;;7.26;96.93;100288.34;6692951;21;19992;-82
2024/04/19 07:56:56;;;;;;;6.88;5.47;;;;;;;7.36;96.53;100286.66;6693645;21;19995;-80
2024/04/19 07:59:25;;;;;;;7.72;5.63;;;;;;;7.37;96.31;100284.84;6692939;21;19991;-80
2024/04/19 08:01:56;;;;;;;6.97;5.15;;;;;;;7.44;95.86;100288.69;6693163;21;20031;-80
2024/04/19 08:04:24;;;;;;;6.15;5.00;;;;;;;7.46;96.12;100281.53;6694211;21;20310;-81
2024/04/19 08:06:53;;;;;;;6.55;5.82;;;;;;;7.52;96.18;100281.84;6695500;21;19991;-81
2024/04/19 08:09:21;;;;;;;7.80;6.55;;;;;;;7.58;95.90;100276.06;6695322;21;19991;-82
2024/04/19 08:11:49;;;;;;;7.03;5.97;;;;;;;7.62;96.05;100281.09;6697489;21;20010;-80
2024/04/19 08:14:17;;;;;;;6.65;5.82;;;;;;;7.67;96.00;100269.22;6695050;21;19995;-81
2024/04/19 08:16:46;;;;;;;7.78;6.43;;;;;;;7.71;95.20;100264.56;6693425;21;20007;-82
2024/04/19 08:19:17;;;;;;;7.25;5.93;;;;;;;7.84;95.70;100257.31;6693794;21;20055;-81
2024/04/19 08:21:45;;;;;;;8.55;6.20;;;;;;;7.86;95.71;100263.31;6695120;21;20014;-80
2024/04/19 08:24:13;;;;;;;7.20;6.07;;;;;;;7.91;95.64;100258.50;6698772;21;19991;-81
2024/04/19 08:26:44;;;;;;;7.03;6.10;;;;;;;7.95;95.28;100252.03;6696402;21;19987;-81
2024/04/19 08:29:13;;;;;;;8.35;7.22;;;;;;;7.97;95.47;100249.25;6694507;21;19994;-82
2024/04/19 08:31:42;;;;;;;9.10;6.55;;;;;;;8.01;95.56;100254.13;6694458;21;19994;-81
2024/04/19 08:34:11;;;;;;;9.50;6.75;;;;;;;8.08;95.27;100257.09;6695372;21;20082;-84
2024/04/19 08:36:41;;;;;;;9.77;7.45;;;;;;;8.11;95.55;100252.41;6696025;21;19995;-80
2024/04/19 08:39:10;;;;;;;9.60;8.20;;;;;;;8.18;95.17;100246.63;6695021;21;20383;-79
2024/04/19 08:41:39;;;;;;;9.20;7.05;;;;;;;8.26;94.68;100237.13;6698992;21;20005;-82
2024/04/19 08:44:11;;;;;;;10.82;7.85;;;;;;;8.36;95.01;100245.09;6703335;21;20014;-81
2024/04/19 08:46:42;;;;;;;11.35;8.57;;;;;;;8.57;94.00;100243.31;6702105;21;20014;-80
2024/04/19 08:49:12;;;;;;;15.55;11.77;;;;;;;8.51;93.93;100249.09;6701491;21;19995;-79
2024/04/19 08:51:44;;;;;;;10.93;8.07;;;;;;;8.49;93.79;100235.22;6695704;21;20015;-81
2024/04/19 08:54:12;;;;;;;10.38;7.97;;;;;;;8.58;93.78;100239.69;6694718;21;19995;-79
2024/04/19 08:56:42;;;;;;;11.45;8.55;;;;;;;8.75;93.63;100240.03;6693363;21;20003;-81
2024/04/19 08:59:10;;;;;;;11.15;8.85;;;;;;;8.72;93.01;100240.31;6687812;21;19999;-81
2024/04/19 09:01:39;;;;;;;10.95;8.00;;;;;;;8.75;93.19;100240.91;6683925;21;19991;-80
2024/04/19 09:04:07;;;;;;;11.07;8.38;;;;;;;8.71;93.21;100236.03;6691865;21;19991;-80
2024/04/19 09:06:36;;;;;;;12.73;10.00;;;;;;;8.72;93.78;100235.03;6689927;21;20414;-80
2024/04/19 09:09:07;;;;;;;12.13;9.65;;;;;;;8.90;93.20;100222.06;6683728;21;20038;-78
2024/04/19 09:11:40;;;;;;;12.48;8.32;;;;;;;8.88;93.89;100219.53;6693315;21;20379;-82
2024/04/19 09:14:10;;;;;;;12.38;8.90;;;;;;;8.77;93.75;100220.47;6695727;21;20456;-80
2024/04/19 09:16:38;;;;;;;13.65;9.35;;;;;;;8.71;95.16;100215.75;6684874;21;20002;-82
2024/04/19 09:19:09;;;;;;;13.52;9.65;;;;;;;8.66;95.16;100227.63;6681378;21;19995;-82
2024/04/19 09:21:37;;;;;;;11.85;9.40;;;;;;;8.71;94.36;100215.75;6687777;21;20010;-79
2024/04/19 09:24:09;;;;;;;14.15;9.93;;;;;;;8.78;94.86;100219.50;6687697;21;20005;-80
2024/04/19 09:26:38;;;;;;;11.27;9.18;;;;;;;8.83;94.41;100205.91;6688334;21;20076;-80
2024/04/19 09:29:07;;;;;;;13.98;10.02;;;;;;;8.83;94.13;100213.84;6685683;21;19995;-81
2024/04/19 09:31:35;;;;;;;15.98;10.88;;;;;;;8.82;93.89;100199.81;6687545;21;20010;-80
2024/04/19 09:34:03;;;;;;;14.13;10.38;;;;;;;8.79;94.32;100226.44;6687702;21;20306;-79
2024/04/19 09:36:32;;;;;;;14.77;10.55;;;;;;;8.69;95.49;100212.38;6687190;21;19991;-81
2024/04/19 09:39:01;;;;;;;16.40;11.40;;;;;;;8.63;95.97;100198.91;6683872;21;20013;-80
2024/04/19 09:41:34;;;;;;;14.90;11.15;;;;;;;8.65;95.80;100197.78;6687637;21;19995;-82
2024/04/19 09:44:03;;;;;;;13.68;10.48;;;;;;;8.74;95.12;100201.44;6686781;21;19999;-83
2024/04/19 09:46:32;;;;;;;13.82;11.10;;;;;;;8.79;95.24;100193.97;6687655;21;20051;-82
2024/04/19 09:49:03;;;;;;;17.20;11.32;;;;;;;8.91;95.21;100198.16;6686507;21;20013;-82
2024/04/19 09:51:37;;;;;;;15.60;10.50;;;;;;;9.00;94.67;100191.25;6689825;21;20158;-82
2024/04/19 09:54:09;;;;;;;17.65;11.57;;;;;;;9.07;94.29;100182.66;6688593;21;20007;-82
2024/04/19 09:56:48;;;;;;;13.30;10.98;;;;;;;9.18;93.88;100168.50;6689812;21;20023;-81
2024/04/19 09:59:19;;;;;;;13.13;11.10;;;;;;;9.31;93.86;100168.25;6686758;21;20010;-83
2024/04/19 10:01:48;;;;;;;15.65;12.18;;;;;;;9.49;93.15;100153.38;6688137;21;19991;-81
2024/04/19 10:04:17;;;;;;;17.35;11.75;;;;;;;9.65;92.09;100160.75;6687508;21;20309;-82
2024/04/19 10:06:47;;;;;;;14.60;11.70;;;;;;;9.82;92.05;100157.41;6686393;21;20013;-81
2024/04/19 10:09:19;;;;;;;14.73;11.65;;;;;;;9.80;92.11;100156.72;6680756;21;20198;-81
2024/04/19 10:11:52;;;;;;;14.13;11.30;;;;;;;9.60;92.01;100158.53;6683715;21;19995;-82
2024/04/19 10:14:21;;;;;;;14.93;11.60;;;;;;;9.54;91.03;100147.69;6681262;21;20395;-77
2024/04/19 10:16:50;;;;;;;14.10;11.45;;;;;;;9.48;91.08;100148.25;6678119;21;19995;-80
2024/04/19 10:19:21;;;;;;;13.05;10.70;;;;;;;9.46;92.39;100142.25;6680200;21;19995;-80
2024/04/19 10:21:54;;;;;;;14.57;11.30;;;;;;;9.34;92.65;100142.41;6684926;21;19995;-79
2024/04/19 10:24:24;;;;;;;17.00;12.43;;;;;;;9.31;94.43;100141.84;6687764;21;20013;-79
2024/04/19 10:26:56;;;;;;;18.23;13.55;;;;;;;9.21;95.77;100120.72;6691336;21;20006;-80
2024/04/19 10:29:25;;;;;;;21.77;15.30;;;;;;;9.20;95.59;100126.97;6694783;21;20045;-80
2024/04/19 10:31:56;;;;;;;18.45;13.90;;;;;;;9.20;95.21;100126.16;6697253;21;20031;-82
2024/04/19 10:34:26;;;;;;;18.65;13.40;;;;;;;9.15;94.96;100110.69;6699585;21;19995;-81
2024/04/19 10:36:55;;;;;;;23.80;14.50;;;;;;;9.14;95.96;100118.75;6701646;21;20006;-79
2024/04/19 10:39:24;;;;;;;17.55;11.65;;;;;;;9.18;94.21;100123.63;6695180;21;19995;-79
2024/04/19 10:41:56;;;;;;;22.92;13.05;;;;;;;9.22;94.92;100121.56;6689770;21;20003;-81
2024/04/19 10:44:40;;;;;;;20.23;12.40;;;;;;;9.28;95.13;100116.53;6690187;21;20014;-82
2024/04/19 10:47:11;;;;;;;14.77;10.13;;;;;;;9.35;92.40;100119.47;6694224;21;19995;-79
2024/04/19 10:49:39;;;;;;;13.13;9.18;;;;;;;9.36;92.39;100108.75;6693471;21;20003;-78
2024/04/19 10:52:08;;;;;;;12.23;9.40;;;;;;;9.33;91.45;100103.78;6692374;21;20425;-80
2024/04/19 10:54:36;;;;;;;11.57;7.90;;;;;;;9.34;90.62;100101.97;6687992;21;19999;-80
2024/04/19 10:57:07;;;;;;;10.10;6.45;;;;;;;9.29;89.48;100097.09;6688222;21;19992;-79
2024/04/19 10:59:35;;;;;;;9.27;5.75;;;;;;;9.25;89.35;100102.81;6687404;21;19999;-79
2024/04/19 11:02:04;;;;;;;7.70;4.97;;;;;;;9.30;88.81;100108.50;6688693;21;20009;-78
2024/04/19 11:04:32;;;;;;;7.80;5.07;;;;;;;9.50;88.97;100118.06;6688727;21;20013;-80
2024/04/19 11:07:01;;;;;;;8.10;5.35;;;;;;;9.53;89.51;100116.97;6691304;21;20010;-81
2024/04/19 11:09:32;;;;;;;10.48;4.70;;;;;;;9.66;88.54;100116.69;6690178;21;20309;-79
2024/04/19 11:12:00;;;;;;;5.43;4.20;;;;;;;9.72;87.60;100108.19;6689601;21;20018;-79
2024/04/19 11:14:31;;;;;;;10.20;4.07;;;;;;;9.65;88.04;100112.38;6690467;21;20310;-78
2024/04/19 11:19:40;;;;;;;4.65;3.60;;;;;;;9.50;88.14;100110.16;6697799;21;19991;-78
2024/04/19 11:22:17;;;;;;;6.63;4.10;;;;;;;9.50;88.59;100104.84;6703365;21;19987;-79
2024/04/19 11:24:48;;;;;;;8.68;4.20;;;;;;;9.64;89.67;100108.88;6703666;21;20009;-79
2024/04/19 11:27:17;;;;;;;9.85;4.75;;;;;;;9.62;89.05;100105.56;6687940;21;20069;-79
2024/04/19 11:29:51;;;;;;;10.25;4.75;;;;;;;9.54;89.94;100111.53;6689567;21;19992;-80
2024/04/19 11:32:20;;;;;;;7.10;4.75;;;;;;;9.44;89.59;100109.88;6689174;21;20014;-81
2024/04/19 11:34:49;;;;;;;7.55;5.30;;;;;;;9.44;89.76;100126.56;6688882;21;20013;-80
2024/04/19 11:37:17;;;;;;;7.93;4.57;;;;;;;9.17;92.66;100145.72;6689479;21;19991;-80
2024/04/19 11:39:47;;;;;;;3.47;2.75;;;;;;;8.42;84.63;100112.75;6690220;21;19995;-82